Terminal Aerodrome Forecast
Issued by NWS Binghamton, NY

Home | Current Version | Previous Version | Text Only | Print | Product List | Glossary On
Versions: 1 2 3 4 5 6 7 8 9 10 11 12 13 14 15 16 17 18 19 20
000
FTUS41 KBGM 160500
TAFAVP
TAF
KAVP 160532Z 1606/1706 15003KT P6SM SCT040 OVC100
     FM160800 VRB02KT P6SM -SHRA OVC040
      TEMPO 1610/1613 OVC025
     FM161400 33007KT P6SM BKN040
      TEMPO 1621/1624 SCT040
     FM170100 VRB03KT P6SM SCT040=

USA.gov is the U.S. government's official web portal to all federal, state and local government web resources and services.